Flight Track Log - Related Links

Times and Time Zones

All times are in EDT time to prevent confusion due to time zone crossing. See the KAP188 flight status page for this flight to view local times or setup timezone preferences in your user account.

Time Position Orientation Groundspeed Altitude Reporting Facility
EDT Latitude Longitude Course Direction KTS MPH feet Rate Location/Type
Sat 08:08:44 AM 37.2383 -89.5439 299° West 121 139 1,300  Level Kansas Center
Sat 08:09:20 AM 37.2567 -89.5856 299° West 143 165 1,800 688 Climbing Memphis Center
Sat 08:10:20 AM 37.2881 -89.6061 332° Northwest 136 157 2,400 550 Climbing Memphis Center
Sat 08:11:20 AM 37.3172 -89.6267 331° Northwest 136 157 2,900 500 Climbing Memphis Center
Sat 08:12:20 AM 37.3528 -89.6447 338° Northwest 136 157 3,400 550 Climbing Memphis Center
Sat 08:13:20 AM 37.3903 -89.6600 342° North 136 157 4,000 477 Climbing Memphis Center
Sat 08:13:48 AM 37.4122 -89.6650 350° North 144 166 4,100 67 Climbing Kansas Center
Sat 08:14:49 AM 37.4542 -89.6861 338° Northwest 157 181 4,100  Level Kansas Center
Sat 08:15:50 AM 37.4986 -89.7078 339° North 168 193 4,100  Level Kansas Center
Sat 08:16:51 AM 37.5411 -89.7331 335° Northwest 169 194 4,100  Level Kansas Center
Sat 08:17:51 AM 37.5800 -89.7539 337° Northwest 170 196 4,100  Level Kansas Center
Sat 08:18:52 AM 37.6239 -89.7772 337° Northwest 170 196 4,100  Level Kansas Center
Sat 08:19:53 AM 37.6775 -89.8047 338° Northwest 172 198 4,100  Level Kansas Center
Sat 08:20:54 AM 37.7219 -89.8283 337° Northwest 172 198 4,100  Level Kansas Center
Sat 08:21:55 AM 37.7661 -89.8497 339° North 171 197 4,100  Level Kansas Center
Sat 08:22:56 AM 37.8094 -89.8731 337° Northwest 170 196 4,100  Level Kansas Center
Sat 08:23:57 AM 37.8550 -89.8958 338° Northwest 171 197 4,100  Level Kansas Center
Sat 08:24:58 AM 37.9028 -89.9208 338° Northwest 172 198 4,100  Level Kansas Center
Sat 08:25:59 AM 37.9472 -89.9433 338° Northwest 173 199 4,100  Level Kansas Center
Sat 08:26:59 AM 37.9917 -89.9669 337° Northwest 173 199 4,100  Level Kansas Center
Sat 08:28:00 AM 38.0367 -89.9908 337° Northwest 174 200 4,100  Level Kansas Center
Sat 08:29:01 AM 38.0814 -90.0136 338° Northwest 174 200 4,100  Level Kansas Center
Sat 08:30:02 AM 38.1225 -90.0356 337° Northwest 173 199 4,100  Level Kansas Center
Sat 08:31:03 AM 38.1639 -90.0628 333° Northwest 173 199 4,100  Level Kansas Center
Sat 08:32:04 AM 38.1953 -90.1117 309° West 174 200 4,100  Level Kansas Center
Sat 08:33:05 AM 38.2342 -90.1678 311° West 177 204 4,100  Level Kansas Center
Sat 08:34:06 AM 38.2664 -90.2133 312° West 175 201 4,100  Level Kansas Center
Sat 08:35:07 AM 38.2989 -90.2592 312° West 174 200 4,100  Level Kansas Center
Sat 08:36:08 AM 38.3314 -90.3053 312° West 175 201 4,100  Level Kansas Center
Sat 08:37:09 AM 38.3642 -90.3511 312° West 175 201 4,100  Level Kansas Center
Sat 08:38:10 AM 38.3969 -90.3978 312° West 175 201 4,100  Level Kansas Center
Sat 08:39:11 AM 38.4292 -90.4453 311° West 176 203 4,100  Level Kansas Center
Sat 08:40:12 AM 38.4694 -90.4792 327° Northwest 182 209 4,100  Level Kansas Center
Sat 08:41:13 AM 38.5144 -90.5017 339° North 177 204 4,100  Level Kansas Center
Sat 08:42:14 AM 38.5614 -90.5239 340° North 177 204 4,100 -49 Level Kansas Center
Sat 08:43:15 AM 38.6081 -90.5467 339° North 178 205 4,000  Descending Kansas Center
Sat 08:44:16 AM 38.6544 -90.5697 339° North 178 205 4,100 49 Climbing Kansas Center
Sat 08:45:17 AM 38.7014 -90.5919 340° North 178 205 4,100  Level Kansas Center
Sat 08:46:18 AM 38.7508 -90.5908 North 179 206 4,100 -49 Level Kansas Center
Sat 08:47:19 AM 38.7986 -90.5892 North 174 200 4,000 -492 Descending Kansas Center
Sat 08:48:20 AM 38.8311 -90.5447 47° Northeast 188 216 3,100 -541 Descending Kansas Center
Sat 08:49:21 AM 38.8161 -90.4919 110° East 167 192 2,900 -393 Descending Kansas Center
Sat 08:50:22 AM 38.7967 -90.4547 124° Southeast 143 165 2,300 -738 Descending Kansas Center
Sat 08:51:23 AM 38.7744 -90.4131 124° Southeast 126 145 1,400 -689 Descending Kansas Center
Sat 08:52:24 AM 38.7586 -90.3803 122° Southeast 115 132 900 -344 Descending Kansas Center
Sat 08:53:25 AM 38.7433 -90.3503 123° Southeast 113 130 700 -197 Descending Kansas Center

Login

Don't have an account? Register now (free) for customized features, flight alerts, and more!